createdAt,value
2023-02-03T00:00:19.100Z,0.43
2023-02-03T00:03:04.521Z,0.60
2023-02-03T00:05:49.537Z,0.60
2023-02-03T00:08:36.180Z,0.40
2023-02-03T00:11:21.807Z,0.70
2023-02-03T00:14:08.002Z,0.68
2023-02-03T00:16:53.356Z,0.80
2023-02-03T00:19:38.076Z,0.63
2023-02-03T00:22:23.119Z,0.55
2023-02-03T00:25:08.388Z,0.70
2023-02-03T00:27:53.664Z,0.57
2023-02-03T00:30:38.655Z,0.60
2023-02-03T00:33:23.645Z,0.65
2023-02-03T00:36:09.274Z,0.95
2023-02-03T00:38:54.609Z,0.50
2023-02-03T00:41:39.871Z,0.70
2023-02-03T00:44:25.066Z,0.57
2023-02-03T00:47:10.589Z,1.02
2023-02-03T00:49:55.889Z,0.60
2023-02-03T00:52:41.111Z,0.63
2023-02-03T00:55:26.510Z,0.77
2023-02-03T00:58:11.348Z,1.08
2023-02-03T01:00:59.707Z,0.68
2023-02-03T01:03:44.667Z,0.80
2023-02-03T01:06:29.722Z,0.60
2023-02-03T01:09:14.916Z,0.65
2023-02-03T01:12:00.002Z,0.88
2023-02-03T01:14:45.280Z,0.90
2023-02-03T01:17:30.482Z,0.93
2023-02-03T01:20:17.042Z,0.82
2023-02-03T01:23:02.329Z,0.82
2023-02-03T01:25:47.159Z,0.80
2023-02-03T01:28:32.639Z,0.60
2023-02-03T01:31:22.128Z,0.70
2023-02-03T01:34:11.418Z,1.05
2023-02-03T01:36:56.471Z,0.73
2023-02-03T01:39:41.598Z,0.80
2023-02-03T01:42:28.573Z,0.90
2023-02-03T01:45:14.008Z,0.98
2023-02-03T01:48:00.135Z,0.90
2023-02-03T01:50:44.990Z,0.52
2023-02-03T01:53:31.659Z,0.68
2023-02-03T01:56:17.370Z,0.82
2023-02-03T01:59:02.669Z,0.70
2023-02-03T02:01:48.571Z,0.52
2023-02-03T02:04:56.845Z,1.08
2023-02-03T02:07:43.752Z,0.80
2023-02-03T02:10:31.293Z,0.80
2023-02-03T02:13:18.277Z,0.63
2023-02-03T02:16:22.389Z,0.57
2023-02-03T02:19:45.492Z,0.63
2023-02-03T02:22:30.421Z,0.57
2023-02-03T02:25:49.412Z,0.70
2023-02-03T02:29:00.615Z,0.43
2023-02-03T02:32:00.359Z,0.60
2023-02-03T02:35:03.305Z,0.43
2023-02-03T02:38:29.350Z,0.57
2023-02-03T02:41:26.377Z,0.60
2023-02-03T02:44:23.479Z,0.73
2023-02-03T02:47:20.057Z,0.70
2023-02-03T02:50:11.812Z,0.60
2023-02-03T02:52:58.173Z,0.68
2023-02-03T02:55:44.606Z,0.80
2023-02-03T02:58:32.019Z,0.40
2023-02-03T03:01:17.924Z,0.60
2023-02-03T03:04:06.048Z,0.70
2023-02-03T03:06:58.384Z,0.57
2023-02-03T03:09:49.301Z,0.50
2023-02-03T03:12:43.153Z,0.50
2023-02-03T03:15:31.775Z,0.50
2023-02-03T03:18:36.089Z,0.75
2023-02-03T03:21:27.451Z,0.70
2023-02-03T03:24:18.523Z,0.20
2023-02-03T03:27:19.076Z,0.60
2023-02-03T03:30:11.649Z,0.40
2023-02-03T03:32:58.501Z,0.60
2023-02-03T03:35:58.986Z,0.63
2023-02-03T03:38:49.999Z,0.50
2023-02-03T03:41:49.949Z,0.57
2023-02-03T03:47:56.377Z,0.52
2023-02-03T03:50:47.385Z,0.60
2023-02-03T03:53:35.363Z,0.40
2023-02-03T03:56:28.153Z,0.75
2023-02-03T03:59:16.404Z,0.80
2023-02-03T04:02:04.643Z,0.55
2023-02-03T04:04:51.062Z,0.30
2023-02-03T04:07:44.390Z,0.40
2023-02-03T04:10:38.963Z,0.65
2023-02-03T04:13:24.317Z,0.73
2023-02-03T04:16:09.570Z,0.70
2023-02-03T04:18:54.779Z,0.75
2023-02-03T04:21:40.014Z,0.60
2023-02-03T04:24:25.029Z,0.85
2023-02-03T04:27:10.953Z,0.43
2023-02-03T04:29:55.653Z,0.50
2023-02-03T04:32:41.264Z,0.75
2023-02-03T04:35:26.716Z,0.70
2023-02-03T04:38:11.823Z,0.55
2023-02-03T04:40:56.755Z,0.45
2023-02-03T04:43:41.792Z,0.60
2023-02-03T04:46:26.872Z,0.50
2023-02-03T04:49:11.828Z,1.27
2023-02-03T04:51:56.807Z,0.50
2023-02-03T04:54:41.954Z,0.80
2023-02-03T04:57:27.292Z,0.80
2023-02-03T05:00:13.376Z,0.90
2023-02-03T05:02:58.611Z,0.40
2023-02-03T05:05:44.201Z,0.65
2023-02-03T05:08:30.525Z,0.47
2023-02-03T05:11:15.709Z,0.47
2023-02-03T05:14:00.819Z,0.52
2023-02-03T05:16:46.564Z,0.70
2023-02-03T05:19:31.703Z,0.60
2023-02-03T05:22:16.739Z,0.90
2023-02-03T05:25:02.847Z,0.90
2023-02-03T05:27:48.243Z,0.75
2023-02-03T05:30:33.528Z,1.10
2023-02-03T05:33:19.036Z,0.55
2023-02-03T05:36:04.532Z,0.75
2023-02-03T05:38:49.751Z,0.75
2023-02-03T05:41:53.076Z,0.50
2023-02-03T05:44:37.976Z,0.70
2023-02-03T05:47:22.903Z,0.80
2023-02-03T05:50:08.361Z,0.70
2023-02-03T05:52:53.368Z,0.70
2023-02-03T05:55:38.370Z,0.70
2023-02-03T05:58:23.725Z,0.70
2023-02-03T06:01:08.964Z,0.70
2023-02-03T06:03:53.925Z,0.57
2023-02-03T06:06:39.257Z,0.82
2023-02-03T06:09:24.189Z,0.50
2023-02-03T06:12:09.146Z,0.57
2023-02-03T06:14:54.324Z,0.47
2023-02-03T06:17:39.758Z,0.60
2023-02-03T06:20:24.938Z,0.55
2023-02-03T06:23:09.780Z,0.65
2023-02-03T06:25:55.486Z,0.60
2023-02-03T06:28:40.822Z,0.40
2023-02-03T06:31:26.378Z,0.57
2023-02-03T06:34:11.352Z,0.63
2023-02-03T06:36:56.575Z,0.60
2023-02-03T06:39:41.618Z,0.70
2023-02-03T06:42:26.826Z,0.60
2023-02-03T06:45:12.079Z,0.45
2023-02-03T06:47:57.009Z,0.47
2023-02-03T06:50:43.175Z,0.40
2023-02-03T06:53:28.487Z,0.50
2023-02-03T06:56:13.358Z,0.50
2023-02-03T06:58:58.933Z,0.60
2023-02-03T07:01:44.109Z,0.70
2023-02-03T07:04:30.163Z,0.55
2023-02-03T07:07:15.026Z,0.60
2023-02-03T07:10:02.829Z,0.50
2023-02-03T07:12:48.023Z,0.70
2023-02-03T07:15:33.710Z,0.68
2023-02-03T07:18:45.240Z,0.70
2023-02-03T07:21:26.635Z,0.60
2023-02-03T07:24:11.870Z,0.68
2023-02-03T07:26:56.744Z,0.60
2023-02-03T07:29:42.086Z,0.57
2023-02-03T07:32:27.055Z,0.40
2023-02-03T07:35:12.339Z,0.57
2023-02-03T07:37:57.207Z,0.75
2023-02-03T07:40:42.178Z,0.73
2023-02-03T07:43:27.144Z,0.57
2023-02-03T07:46:12.564Z,0.68
2023-02-03T07:48:57.872Z,0.77
2023-02-03T07:51:45.313Z,0.68
2023-02-03T07:54:30.500Z,0.85
2023-02-03T07:57:15.654Z,1.00
2023-02-03T08:00:00.505Z,0.90
2023-02-03T08:02:47.000Z,0.52
2023-02-03T08:05:32.333Z,0.60
2023-02-03T08:08:17.618Z,0.65
2023-02-03T08:11:03.082Z,0.60
2023-02-03T08:13:48.265Z,0.60
2023-02-03T08:16:33.608Z,0.45
2023-02-03T08:19:18.659Z,0.73
2023-02-03T08:22:03.618Z,0.60
2023-02-03T08:24:49.290Z,0.80
2023-02-03T08:27:34.787Z,0.68
2023-02-03T08:30:19.755Z,0.80
2023-02-03T08:33:05.036Z,0.73
2023-02-03T08:35:50.866Z,0.80
2023-02-03T08:38:36.473Z,0.80
2023-02-03T08:41:21.733Z,0.85
2023-02-03T08:44:07.104Z,0.70
2023-02-03T08:46:53.513Z,1.02
2023-02-03T08:49:41.867Z,1.02
2023-02-03T08:52:26.930Z,0.73
2023-02-03T08:55:12.448Z,1.13
2023-02-03T08:57:57.676Z,1.30
2023-02-03T09:00:43.310Z,1.10
2023-02-03T09:03:28.315Z,0.90
2023-02-03T09:06:16.520Z,1.30
2023-02-03T09:09:02.368Z,1.10
2023-02-03T09:11:48.035Z,1.05
2023-02-03T09:14:34.057Z,1.17
2023-02-03T09:17:19.497Z,1.38
2023-02-03T09:20:05.721Z,1.48
2023-02-03T09:22:50.903Z,1.25
2023-02-03T09:25:36.590Z,0.90
2023-02-03T09:28:21.915Z,0.80
2023-02-03T09:31:09.975Z,1.15
2023-02-03T09:33:55.034Z,0.93
2023-02-03T09:36:41.917Z,1.17
2023-02-03T09:39:27.870Z,1.00
2023-02-03T09:42:31.971Z,1.42
2023-02-03T09:45:29.286Z,1.05
2023-02-03T09:48:32.495Z,1.23
2023-02-03T09:51:25.259Z,2.10
2023-02-03T09:54:47.476Z,1.95
2023-02-03T09:57:43.953Z,1.05
2023-02-03T10:00:35.228Z,2.15
2023-02-03T10:03:32.540Z,1.30
2023-02-03T10:06:36.456Z,1.13
2023-02-03T10:09:39.776Z,1.42
2023-02-03T10:12:49.600Z,1.58
2023-02-03T10:15:52.735Z,1.40
2023-02-03T10:18:47.092Z,1.30
2023-02-03T10:21:55.341Z,0.80
2023-02-03T10:24:46.604Z,1.35
2023-02-03T10:27:33.467Z,1.30
2023-02-03T10:30:21.891Z,1.17
2023-02-03T10:33:13.015Z,1.08
2023-02-03T10:36:15.227Z,1.20
2023-02-03T10:39:41.734Z,1.10
2023-02-03T10:42:50.014Z,1.20
2023-02-03T10:45:38.437Z,1.10
2023-02-03T10:48:24.970Z,1.23
2023-02-03T10:51:23.655Z,1.10
2023-02-03T10:54:35.119Z,1.38
2023-02-03T10:57:20.175Z,1.20
2023-02-03T11:00:28.831Z,1.35
2023-02-03T11:03:14.196Z,0.90
2023-02-03T11:06:06.957Z,0.85
2023-02-03T11:08:52.629Z,0.95
2023-02-03T11:11:41.583Z,1.10
2023-02-03T11:14:26.813Z,0.70
2023-02-03T11:17:19.761Z,1.55
2023-02-03T11:20:15.822Z,1.23
2023-02-03T11:23:02.857Z,1.75
2023-02-03T11:25:48.473Z,1.27
2023-02-03T11:28:33.472Z,1.48
2023-02-03T11:31:23.591Z,1.05
2023-02-03T11:37:33.354Z,1.20
2023-02-03T11:40:21.356Z,1.15
2023-02-03T11:43:16.679Z,1.75
2023-02-03T11:46:05.118Z,1.08
2023-02-03T11:49:00.113Z,1.38
2023-02-03T11:51:57.606Z,1.40
2023-02-03T11:54:51.768Z,0.90
2023-02-03T11:57:52.230Z,1.17
2023-02-03T12:00:49.237Z,1.95
2023-02-03T12:03:50.694Z,1.45
2023-02-03T12:06:58.463Z,2.08
2023-02-03T12:09:52.428Z,2.28
2023-02-03T12:12:55.971Z,2.33
2023-02-03T12:16:03.172Z,1.60
2023-02-03T12:19:00.424Z,1.17
2023-02-03T12:21:56.590Z,2.15
2023-02-03T12:24:55.476Z,1.60
2023-02-03T12:28:40.022Z,1.95
2023-02-03T12:31:42.678Z,1.00
2023-02-03T12:34:39.252Z,2.20
2023-02-03T12:37:49.811Z,2.08
2023-02-03T12:40:49.433Z,1.88
2023-02-03T12:46:45.075Z,1.77
2023-02-03T12:49:46.957Z,1.48
2023-02-03T12:52:42.216Z,1.52
2023-02-03T12:55:38.849Z,1.35
2023-02-03T12:58:34.747Z,1.33
2023-02-03T13:01:28.108Z,1.02
2023-02-03T13:04:41.662Z,1.67
2023-02-03T13:07:33.527Z,1.48
2023-02-03T13:10:27.202Z,1.95
2023-02-03T13:13:16.435Z,1.85
2023-02-03T13:16:07.828Z,1.77
2023-02-03T13:19:01.889Z,1.90
2023-02-03T13:21:50.758Z,1.40
2023-02-03T13:24:36.147Z,1.50
2023-02-03T13:27:46.089Z,1.42
2023-02-03T13:33:31.829Z,1.30
2023-02-03T13:36:25.779Z,1.52
2023-02-03T13:39:36.590Z,1.60
2023-02-03T13:42:30.236Z,1.77
2023-02-03T13:45:37.255Z,1.38
2023-02-03T13:48:33.660Z,1.52
2023-02-03T13:51:25.571Z,1.90
2023-02-03T13:54:21.031Z,1.30
2023-02-03T13:57:21.265Z,1.27
2023-02-03T14:00:28.216Z,1.20
2023-02-03T14:03:25.574Z,1.48
2023-02-03T14:06:36.181Z,1.02
2023-02-03T14:09:30.512Z,1.63
2023-02-03T14:12:15.231Z,1.73
2023-02-03T14:15:13.063Z,1.63
2023-02-03T14:18:01.524Z,1.50
2023-02-03T14:20:51.124Z,1.23
2023-02-03T14:26:52.980Z,1.43
2023-02-03T14:29:37.908Z,1.45
2023-02-03T14:32:23.019Z,1.90
2023-02-03T14:35:17.773Z,2.28
2023-02-03T14:38:06.806Z,1.90
2023-02-03T14:40:59.497Z,1.43
2023-02-03T14:44:16.268Z,1.55
2023-02-03T14:47:01.316Z,1.90
2023-02-03T14:50:17.170Z,1.95
2023-02-03T14:53:23.891Z,1.80
2023-02-03T14:57:08.119Z,1.35
2023-02-03T14:59:56.403Z,2.50
2023-02-03T15:03:10.108Z,2.08
2023-02-03T15:05:58.997Z,1.80
2023-02-03T15:08:48.536Z,1.73
2023-02-03T15:11:33.950Z,1.80
2023-02-03T15:14:22.116Z,2.70
2023-02-03T15:17:23.158Z,1.83
2023-02-03T15:20:25.945Z,3.28
2023-02-03T15:23:26.627Z,1.95
2023-02-03T15:26:14.151Z,1.92
2023-02-03T15:29:02.316Z,2.05
2023-02-03T15:31:51.243Z,1.60
2023-02-03T15:34:41.662Z,2.13
2023-02-03T15:37:35.641Z,2.13
2023-02-03T15:40:23.473Z,1.77
2023-02-03T15:43:14.679Z,1.80
2023-02-03T15:46:25.844Z,2.35
2023-02-03T15:49:18.144Z,2.40
2023-02-03T15:52:07.941Z,3.53
2023-02-03T15:57:40.793Z,3.65
2023-02-03T16:00:38.574Z,2.61
2023-02-03T16:03:29.768Z,2.55
2023-02-03T16:06:25.429Z,2.47
2023-02-03T16:09:27.369Z,2.97
2023-02-03T16:12:22.401Z,2.58
2023-02-03T16:15:23.666Z,2.67
2023-02-03T16:18:17.758Z,2.10
2023-02-03T16:21:06.997Z,2.63
2023-02-03T16:23:52.052Z,2.70
2023-02-03T16:26:38.455Z,3.08
2023-02-03T16:29:47.617Z,2.72
2023-02-03T16:32:51.350Z,2.95
2023-02-03T16:35:55.385Z,2.80
2023-02-03T16:39:06.939Z,3.75
2023-02-03T16:42:17.070Z,3.80
2023-02-03T16:45:21.355Z,3.38
2023-02-03T16:48:25.772Z,3.00
2023-02-03T16:51:15.832Z,3.30
2023-02-03T16:54:01.176Z,3.45
2023-02-03T16:56:47.400Z,3.38
2023-02-03T16:59:32.714Z,4.00
2023-02-03T17:02:18.263Z,3.88
2023-02-03T17:05:03.623Z,3.72
2023-02-03T17:07:49.172Z,3.85
2023-02-03T17:10:38.989Z,3.85
2023-02-03T17:13:24.590Z,3.85
2023-02-03T17:16:17.053Z,3.72
2023-02-03T17:19:02.289Z,4.38
2023-02-03T17:21:47.968Z,4.57
2023-02-03T17:24:32.818Z,4.93
2023-02-03T17:27:17.920Z,4.47
2023-02-03T17:30:04.214Z,4.00
2023-02-03T17:32:49.418Z,3.40
2023-02-03T17:35:34.353Z,3.83
2023-02-03T17:38:19.577Z,4.20
2023-02-03T17:53:30.697Z,3.85
2023-02-03T17:56:19.620Z,3.65
2023-02-03T17:59:05.701Z,3.65
2023-02-03T18:01:50.590Z,3.53
2023-02-03T18:04:36.222Z,3.25
2023-02-03T18:07:21.545Z,4.00
2023-02-03T18:10:06.962Z,3.65
2023-02-03T18:12:52.301Z,3.25
2023-02-03T18:15:38.503Z,4.88
2023-02-03T18:18:25.772Z,3.92
2023-02-03T18:21:13.557Z,3.75
2023-02-03T18:24:01.602Z,3.40
2023-02-03T18:26:49.768Z,3.22
2023-02-03T18:29:34.590Z,2.95
2023-02-03T18:32:20.015Z,4.03
2023-02-03T18:35:07.590Z,3.72
2023-02-03T18:37:52.460Z,3.85
2023-02-03T18:40:38.318Z,3.35
2023-02-03T18:43:23.593Z,3.63
2023-02-03T18:46:11.644Z,3.58
2023-02-03T18:48:57.179Z,2.92
2023-02-03T18:51:42.131Z,3.10
2023-02-03T18:54:29.503Z,3.15
2023-02-03T18:57:15.685Z,3.40
2023-02-03T19:00:00.791Z,3.53
2023-02-03T19:02:49.529Z,3.35
2023-02-03T19:05:34.385Z,3.50
2023-02-03T19:08:19.383Z,4.47
2023-02-03T19:11:04.803Z,4.10
2023-02-03T19:13:50.233Z,3.60
2023-02-03T19:16:35.254Z,3.45
2023-02-03T19:19:20.926Z,3.00
2023-02-03T19:22:05.955Z,3.13
2023-02-03T19:24:50.900Z,3.47
2023-02-03T19:27:36.177Z,3.67
2023-02-03T19:30:22.013Z,3.10
2023-02-03T19:33:07.013Z,3.08
2023-02-03T19:35:52.799Z,3.22
2023-02-03T19:38:38.345Z,3.88
2023-02-03T19:41:25.679Z,2.80
2023-02-03T19:44:10.735Z,3.80
2023-02-03T19:46:56.000Z,3.92
2023-02-03T19:49:41.346Z,4.03
2023-02-03T19:52:26.306Z,3.85
2023-02-03T19:55:12.210Z,4.47
2023-02-03T19:57:59.859Z,4.40
2023-02-03T20:00:44.961Z,3.72
2023-02-03T20:03:30.312Z,4.32
2023-02-03T20:06:16.181Z,3.70
2023-02-03T20:09:01.352Z,3.85
2023-02-03T20:11:46.251Z,4.35
2023-02-03T20:14:33.823Z,4.68
2023-02-03T20:17:18.927Z,4.20
2023-02-03T20:20:04.878Z,4.20
2023-02-03T20:22:50.197Z,3.85
2023-02-03T20:25:35.521Z,3.85
2023-02-03T20:28:23.094Z,3.35
2023-02-03T20:31:08.499Z,2.80
2023-02-03T20:33:53.949Z,2.67
2023-02-03T20:36:39.171Z,3.17
2023-02-03T20:39:24.388Z,2.95
2023-02-03T20:42:15.222Z,3.05
2023-02-03T20:45:00.202Z,2.75
2023-02-03T20:47:45.616Z,2.80
2023-02-03T20:50:41.563Z,2.90
2023-02-03T20:53:27.639Z,3.00
2023-02-03T20:56:18.258Z,2.75
2023-02-03T20:59:03.564Z,3.78
2023-02-03T21:01:49.120Z,3.22
2023-02-03T21:04:53.211Z,2.88
2023-02-03T21:07:39.242Z,2.90
2023-02-03T21:10:25.094Z,3.10
2023-02-03T21:13:27.877Z,2.58
2023-02-03T21:16:27.586Z,2.75
2023-02-03T21:19:21.835Z,3.10
2023-02-03T21:22:30.197Z,3.20
2023-02-03T21:25:27.098Z,3.00
2023-02-03T21:28:24.637Z,3.38
2023-02-03T21:31:23.261Z,3.70
2023-02-03T21:34:37.815Z,3.20
2023-02-03T21:37:23.004Z,3.90
2023-02-03T21:40:29.209Z,3.75
2023-02-03T21:43:17.901Z,4.03
2023-02-03T21:46:03.059Z,3.92
2023-02-03T21:48:50.826Z,5.43
2023-02-03T21:51:39.498Z,9.82
2023-02-03T21:54:33.631Z,15.80
2023-02-03T21:57:20.609Z,21.65
2023-02-03T22:00:34.601Z,24.20
2023-02-03T22:03:27.703Z,21.27
2023-02-03T22:06:18.728Z,22.58
2023-02-03T22:09:04.014Z,22.85
2023-02-03T22:11:49.246Z,21.73
2023-02-03T22:14:34.406Z,18.52
2023-02-03T22:17:19.266Z,15.98
2023-02-03T22:20:04.325Z,15.45
2023-02-03T22:22:49.324Z,16.05
2023-02-03T22:25:34.453Z,14.45
2023-02-03T22:28:19.556Z,14.88
2023-02-03T22:31:07.554Z,13.88
2023-02-03T22:33:52.555Z,12.43
2023-02-03T22:36:37.803Z,10.02
2023-02-03T22:39:22.936Z,8.73
2023-02-03T22:42:07.994Z,5.80
2023-02-03T22:44:53.189Z,4.93
2023-02-03T22:47:38.428Z,4.75
2023-02-03T22:50:34.779Z,4.32
2023-02-03T22:53:21.058Z,5.82
2023-02-03T22:56:06.026Z,7.07
2023-02-03T22:58:51.346Z,7.00
2023-02-03T23:01:36.349Z,7.75
2023-02-03T23:04:22.817Z,7.53
2023-02-03T23:07:07.784Z,5.65
2023-02-03T23:09:53.108Z,4.85
2023-02-03T23:12:38.096Z,4.38
2023-02-03T23:15:23.466Z,4.05
2023-02-03T23:18:08.494Z,3.90
2023-02-03T23:20:53.850Z,4.53
2023-02-03T23:23:39.002Z,4.72
2023-02-03T23:26:23.945Z,4.38
2023-02-03T23:29:09.134Z,4.90
2023-02-03T23:31:54.519Z,4.82
2023-02-03T23:34:57.993Z,5.13
2023-02-03T23:37:43.280Z,5.90
2023-02-03T23:40:29.211Z,6.47
2023-02-03T23:43:15.626Z,6.05
2023-02-03T23:46:00.827Z,5.80
2023-02-03T23:48:46.074Z,5.93
2023-02-03T23:51:31.373Z,5.38
2023-02-03T23:54:16.463Z,5.28
2023-02-03T23:57:01.315Z,5.00
2023-02-03T23:59:46.570Z,5.30
